createdAt,value
2022-12-15T00:02:17.105Z,75.33
2022-12-15T00:05:06.014Z,75.08
2022-12-15T00:07:54.873Z,75.02
2022-12-15T00:10:43.925Z,75.09
2022-12-15T00:13:33.392Z,75.61
2022-12-15T00:16:22.853Z,75.53
2022-12-15T00:19:11.816Z,75.23
2022-12-15T00:22:00.942Z,75.47
2022-12-15T00:24:50.337Z,75.16
2022-12-15T00:27:39.200Z,75.08
2022-12-15T00:30:29.506Z,75.03
2022-12-15T00:33:18.358Z,74.98
2022-12-15T00:36:08.680Z,74.60
2022-12-15T00:38:46.291Z,74.67
2022-12-15T00:41:19.606Z,74.61
2022-12-15T00:43:51.415Z,74.82
2022-12-15T00:46:40.596Z,74.90
2022-12-15T00:49:32.663Z,74.57
2022-12-15T00:52:21.798Z,74.62
2022-12-15T00:55:10.801Z,74.43
2022-12-15T00:58:00.990Z,74.33
2022-12-15T01:00:51.882Z,74.53
2022-12-15T01:03:42.976Z,74.60
2022-12-15T01:06:35.069Z,74.62
2022-12-15T01:09:26.581Z,74.52
2022-12-15T01:12:16.374Z,74.90
2022-12-15T01:15:05.793Z,74.98
2022-12-15T01:17:54.872Z,75.08
2022-12-15T01:20:26.642Z,74.59
2022-12-15T01:22:58.881Z,74.86
2022-12-15T01:25:30.780Z,74.68
2022-12-15T01:28:02.462Z,74.47
2022-12-15T01:30:34.200Z,74.48
2022-12-15T01:33:05.974Z,74.71
2022-12-15T01:35:45.110Z,74.78
2022-12-15T01:38:16.910Z,74.53
2022-12-15T01:40:55.297Z,74.46
2022-12-15T01:43:29.360Z,74.46
2022-12-15T01:46:05.371Z,74.30
2022-12-15T01:48:46.221Z,74.02
2022-12-15T01:51:25.542Z,73.91
2022-12-15T01:54:03.360Z,73.94
2022-12-15T01:56:38.584Z,74.08
2022-12-15T01:59:15.586Z,74.36
2022-12-15T02:01:49.552Z,74.46
2022-12-15T02:04:24.371Z,74.58
2022-12-15T02:06:56.530Z,74.48
2022-12-15T02:09:30.169Z,74.56
2022-12-15T02:12:11.014Z,74.57
2022-12-15T02:14:55.585Z,74.44
2022-12-15T02:17:37.265Z,74.54
2022-12-15T02:20:44.366Z,74.97
2022-12-15T02:23:44.104Z,74.93
2022-12-15T02:26:32.098Z,74.46
2022-12-15T02:29:20.242Z,74.30
2022-12-15T02:31:57.545Z,74.10
2022-12-15T02:34:36.093Z,74.17
2022-12-15T02:37:13.066Z,73.96
2022-12-15T02:39:45.106Z,73.84
2022-12-15T02:42:16.936Z,74.37
2022-12-15T02:44:53.853Z,74.66
2022-12-15T02:47:34.362Z,74.61
2022-12-15T02:50:30.298Z,74.61
2022-12-15T02:53:17.375Z,74.76
2022-12-15T02:55:59.769Z,74.73
2022-12-15T02:58:39.456Z,74.91
2022-12-15T03:01:15.395Z,75.19
2022-12-15T03:03:48.530Z,75.29
2022-12-15T03:06:20.826Z,75.26
2022-12-15T03:08:52.349Z,75.38
2022-12-15T03:11:24.364Z,75.29
2022-12-15T03:13:56.229Z,75.36
2022-12-15T03:16:27.894Z,75.60
2022-12-15T03:18:59.485Z,75.74
2022-12-15T03:21:31.030Z,75.50
2022-12-15T03:24:02.530Z,75.65
2022-12-15T03:26:34.474Z,75.59
2022-12-15T03:29:06.301Z,75.44
2022-12-15T03:31:38.091Z,75.51
2022-12-15T03:34:09.873Z,75.68
2022-12-15T03:36:41.691Z,75.28
2022-12-15T03:39:13.399Z,75.52
2022-12-15T03:41:45.079Z,75.55
2022-12-15T03:44:16.533Z,75.46
2022-12-15T03:46:48.118Z,75.76
2022-12-15T03:49:19.731Z,75.60
2022-12-15T03:51:51.320Z,75.70
2022-12-15T03:54:22.857Z,75.64
2022-12-15T03:56:54.399Z,75.87
2022-12-15T03:59:26.229Z,75.81
2022-12-15T04:01:57.875Z,75.80
2022-12-15T04:04:29.453Z,75.92
2022-12-15T04:07:01.068Z,75.59
2022-12-15T04:09:32.719Z,75.49
2022-12-15T04:12:04.871Z,75.87
2022-12-15T04:14:36.509Z,76.21
2022-12-15T04:17:08.239Z,76.01
2022-12-15T04:19:57.376Z,75.61
2022-12-15T04:22:28.965Z,75.51
2022-12-15T04:25:17.903Z,75.88
2022-12-15T04:28:12.422Z,76.22
2022-12-15T04:31:09.631Z,75.95
2022-12-15T04:34:01.523Z,75.72
2022-12-15T04:36:51.804Z,75.75
2022-12-15T04:39:41.112Z,75.97
2022-12-15T04:42:30.115Z,76.05
2022-12-15T04:45:22.183Z,76.28
2022-12-15T04:48:11.443Z,76.24
2022-12-15T04:51:01.121Z,76.52
2022-12-15T04:53:50.312Z,76.30
2022-12-15T04:56:39.226Z,76.66
2022-12-15T04:59:28.266Z,76.38
2022-12-15T05:02:17.212Z,76.34
2022-12-15T05:05:06.394Z,75.88
2022-12-15T05:07:55.402Z,75.71
2022-12-15T05:10:44.392Z,76.08
2022-12-15T05:13:33.346Z,76.00
2022-12-15T05:16:23.618Z,75.88
2022-12-15T05:19:12.593Z,76.03
2022-12-15T05:22:01.328Z,76.20
2022-12-15T05:24:50.320Z,75.81
2022-12-15T05:27:39.380Z,76.12
2022-12-15T05:30:31.426Z,75.77
2022-12-15T05:33:06.821Z,75.50
2022-12-15T05:35:39.034Z,75.20
2022-12-15T05:38:10.667Z,75.55
2022-12-15T05:40:42.471Z,75.76
2022-12-15T05:43:14.367Z,75.52
2022-12-15T05:45:46.140Z,75.45
2022-12-15T05:48:17.753Z,75.43
2022-12-15T05:50:50.880Z,74.83
2022-12-15T05:53:22.588Z,74.91
2022-12-15T05:55:54.445Z,74.98
2022-12-15T05:58:26.215Z,75.18
2022-12-15T06:01:03.919Z,75.25
2022-12-15T06:03:35.739Z,75.46
2022-12-15T06:06:08.785Z,75.30
2022-12-15T06:08:42.954Z,75.54
2022-12-15T06:11:17.090Z,75.65
2022-12-15T06:13:49.095Z,75.36
2022-12-15T06:16:22.460Z,75.20
2022-12-15T06:18:57.710Z,75.12
2022-12-15T06:21:32.034Z,75.40
2022-12-15T06:24:03.934Z,74.80
2022-12-15T06:26:38.116Z,74.52
2022-12-15T06:29:12.139Z,74.98
2022-12-15T06:31:45.189Z,75.15
2022-12-15T06:34:18.601Z,75.78
2022-12-15T06:36:52.214Z,75.57
2022-12-15T06:39:23.991Z,75.90
2022-12-15T06:41:55.717Z,75.40
2022-12-15T06:44:27.575Z,75.55
2022-12-15T06:46:59.161Z,75.05
2022-12-15T06:49:32.340Z,74.83
2022-12-15T06:52:04.157Z,75.00
2022-12-15T06:54:36.202Z,75.19
2022-12-15T06:57:09.707Z,75.41
2022-12-15T06:59:41.419Z,75.26
2022-12-15T07:02:23.662Z,74.95
2022-12-15T07:04:58.687Z,75.00
2022-12-15T07:07:30.305Z,75.24
2022-12-15T07:10:02.255Z,74.96
2022-12-15T07:12:34.097Z,75.14
2022-12-15T07:15:06.265Z,75.35
2022-12-15T07:17:38.548Z,75.49
2022-12-15T07:20:12.280Z,75.82
2022-12-15T07:22:43.991Z,75.72
2022-12-15T07:25:15.624Z,75.48
2022-12-15T07:27:47.395Z,75.33
2022-12-15T07:30:20.155Z,75.15
2022-12-15T07:32:52.470Z,75.53
2022-12-15T07:35:24.662Z,75.12
2022-12-15T07:37:56.445Z,75.01
2022-12-15T07:40:28.165Z,74.36
2022-12-15T07:42:59.898Z,73.98
2022-12-15T07:45:31.559Z,74.75
2022-12-15T07:48:03.658Z,74.85
2022-12-15T07:50:35.535Z,75.17
2022-12-15T07:53:07.509Z,75.40
2022-12-15T07:56:05.611Z,75.68
2022-12-15T07:58:32.428Z,76.13
2022-12-15T08:01:06.165Z,75.63
2022-12-15T08:03:38.911Z,75.64
2022-12-15T08:06:13.642Z,75.53
2022-12-15T08:08:50.407Z,75.17
2022-12-15T08:11:25.213Z,75.17
2022-12-15T08:14:06.942Z,75.38
2022-12-15T08:16:40.452Z,75.73
2022-12-15T08:19:15.746Z,75.74
2022-12-15T08:21:49.046Z,75.47
2022-12-15T08:24:21.367Z,75.32
2022-12-15T08:26:53.355Z,75.31
2022-12-15T08:29:50.178Z,74.95
2022-12-15T08:32:16.965Z,74.73
2022-12-15T08:34:50.306Z,74.17
2022-12-15T08:37:22.002Z,74.64
2022-12-15T08:39:53.930Z,74.70
2022-12-15T08:42:26.006Z,74.20
2022-12-15T08:44:59.805Z,74.13
2022-12-15T08:47:36.206Z,74.20
2022-12-15T08:50:10.749Z,74.29
2022-12-15T08:53:00.747Z,74.23
2022-12-15T08:55:38.357Z,74.42
2022-12-15T08:58:10.307Z,74.57
2022-12-15T09:00:42.099Z,74.67
2022-12-15T09:03:13.847Z,74.49
2022-12-15T09:05:45.869Z,74.85
2022-12-15T09:08:20.096Z,74.79
2022-12-15T09:10:52.706Z,74.58
2022-12-15T09:13:24.758Z,74.55
2022-12-15T09:16:09.287Z,74.52
2022-12-15T09:18:43.441Z,74.82
2022-12-15T09:21:16.005Z,74.69
2022-12-15T09:23:52.271Z,74.78
2022-12-15T09:26:25.355Z,74.64
2022-12-15T09:28:57.098Z,74.39
2022-12-15T09:31:31.346Z,74.52
2022-12-15T09:34:04.341Z,74.48
2022-12-15T09:36:36.100Z,74.86
2022-12-15T09:39:09.218Z,74.48
2022-12-15T09:41:43.470Z,74.36
2022-12-15T09:44:18.164Z,74.44
2022-12-15T09:47:12.658Z,74.01
2022-12-15T09:49:55.179Z,74.30
2022-12-15T09:52:31.554Z,74.33
2022-12-15T09:55:05.794Z,74.23
2022-12-15T09:57:44.801Z,73.81
2022-12-15T10:00:22.867Z,73.88
2022-12-15T10:03:25.060Z,74.22
2022-12-15T10:06:17.068Z,74.43
2022-12-15T10:08:55.763Z,74.65
2022-12-15T10:11:42.311Z,74.63
2022-12-15T10:14:23.502Z,74.51
2022-12-15T10:17:01.510Z,74.31
2022-12-15T10:19:42.410Z,74.31
2022-12-15T10:22:22.219Z,74.19
2022-12-15T10:25:11.549Z,74.53
2022-12-15T10:28:09.648Z,74.72
2022-12-15T10:30:52.576Z,75.15
2022-12-15T10:33:28.866Z,74.92
2022-12-15T10:36:01.394Z,75.15
2022-12-15T10:38:39.047Z,75.35
2022-12-15T10:41:13.724Z,75.22
2022-12-15T10:43:47.614Z,75.39
2022-12-15T10:46:24.594Z,75.34
2022-12-15T10:48:58.733Z,75.35
2022-12-15T10:51:32.815Z,75.49
2022-12-15T10:54:16.676Z,74.99
2022-12-15T10:56:53.204Z,74.84
2022-12-15T10:59:33.657Z,74.89
2022-12-15T11:02:36.924Z,74.90
2022-12-15T11:05:17.509Z,74.74
2022-12-15T11:07:51.775Z,74.12
2022-12-15T11:11:11.088Z,73.91
2022-12-15T11:13:43.859Z,74.24
2022-12-15T11:16:18.582Z,74.30
2022-12-15T11:18:53.199Z,74.18
2022-12-15T11:21:29.227Z,74.38
2022-12-15T11:24:07.435Z,74.39
2022-12-15T11:26:55.495Z,74.65
2022-12-15T11:29:37.455Z,74.64
2022-12-15T11:32:12.465Z,74.19
2022-12-15T11:34:47.247Z,74.13
2022-12-15T11:37:34.027Z,73.84
2022-12-15T11:40:25.514Z,73.88
2022-12-15T11:43:18.714Z,73.75
2022-12-15T11:46:03.315Z,73.66
2022-12-15T11:48:43.467Z,73.71
2022-12-15T11:51:26.346Z,73.51
2022-12-15T11:54:11.545Z,73.80
2022-12-15T11:56:45.638Z,73.94
2022-12-15T11:59:59.943Z,74.25
2022-12-15T12:02:58.361Z,73.86
2022-12-15T12:05:53.465Z,73.78
2022-12-15T12:08:42.710Z,73.94
2022-12-15T12:11:17.101Z,73.55
2022-12-15T12:14:01.403Z,73.36
2022-12-15T12:16:41.918Z,73.75
2022-12-15T12:19:20.093Z,73.71
2022-12-15T12:21:57.381Z,73.58
2022-12-15T12:24:34.981Z,73.76
2022-12-15T12:27:14.597Z,73.36
2022-12-15T12:29:49.056Z,72.92
2022-12-15T12:32:30.763Z,73.25
2022-12-15T12:35:30.981Z,73.20
2022-12-15T12:38:04.698Z,73.37
2022-12-15T12:40:53.752Z,72.74
2022-12-15T12:43:35.145Z,73.07
2022-12-15T12:46:16.050Z,72.65
2022-12-15T12:48:53.000Z,72.86
2022-12-15T12:51:29.501Z,73.10
2022-12-15T12:54:02.620Z,73.07
2022-12-15T12:56:41.073Z,73.23
2022-12-15T12:59:42.977Z,73.35
2022-12-15T13:02:55.466Z,73.18
2022-12-15T13:05:33.397Z,73.04
2022-12-15T13:08:35.148Z,73.07
2022-12-15T13:14:56.196Z,73.27
2022-12-15T13:17:32.907Z,73.48
2022-12-15T13:20:34.381Z,73.69
2022-12-15T13:23:42.377Z,73.33
2022-12-15T13:26:20.811Z,73.33
2022-12-15T13:28:58.474Z,73.19
2022-12-15T13:31:34.043Z,73.92
2022-12-15T13:34:19.601Z,73.76
2022-12-15T13:37:01.817Z,73.48
2022-12-15T13:39:58.139Z,73.02
2022-12-15T13:42:53.166Z,73.08
2022-12-15T13:45:44.584Z,73.28
2022-12-15T13:48:30.856Z,73.63
2022-12-15T13:51:09.749Z,73.35
2022-12-15T13:53:51.685Z,73.92
2022-12-15T13:56:41.439Z,73.23
2022-12-15T13:59:21.993Z,73.35
2022-12-15T14:01:55.938Z,73.63
2022-12-15T14:04:28.034Z,73.32
2022-12-15T14:07:02.752Z,73.09
2022-12-15T14:09:34.896Z,73.17
2022-12-15T14:12:10.040Z,73.04
2022-12-15T14:14:49.287Z,73.10
2022-12-15T14:17:22.151Z,73.39
2022-12-15T14:19:55.068Z,72.83
2022-12-15T14:22:29.995Z,73.10
2022-12-15T14:25:14.674Z,73.54
2022-12-15T14:27:50.549Z,73.75
2022-12-15T14:30:29.677Z,73.58
2022-12-15T14:33:07.678Z,73.86
2022-12-15T14:35:42.629Z,73.57
2022-12-15T14:38:19.426Z,73.18
2022-12-15T14:40:53.790Z,73.30
2022-12-15T14:43:29.163Z,73.60
2022-12-15T14:46:11.371Z,73.25
2022-12-15T14:48:51.688Z,73.08
2022-12-15T14:51:27.989Z,73.02
2022-12-15T14:53:59.788Z,73.06
2022-12-15T14:56:32.466Z,73.31
2022-12-15T14:59:07.533Z,73.51
2022-12-15T15:01:58.189Z,73.22
2022-12-15T15:03:05.152Z,73.26
2022-12-15T15:04:34.582Z,73.39
2022-12-15T15:07:09.272Z,73.43
2022-12-15T15:09:42.997Z,73.56
2022-12-15T15:12:18.943Z,73.44
2022-12-15T15:14:54.129Z,73.77
2022-12-15T15:17:35.456Z,73.89
2022-12-15T15:20:16.847Z,74.10
2022-12-15T15:23:04.587Z,74.20
2022-12-15T15:25:43.042Z,74.01
2022-12-15T15:28:23.403Z,73.83
2022-12-15T15:30:57.772Z,74.48
2022-12-15T15:33:30.077Z,75.03
2022-12-15T15:36:04.698Z,75.36
2022-12-15T15:38:40.148Z,75.87
2022-12-15T15:41:20.310Z,75.91
2022-12-15T15:43:52.316Z,75.77
2022-12-15T15:46:27.257Z,75.05
2022-12-15T15:49:03.812Z,75.06
2022-12-15T15:51:38.106Z,75.39
2022-12-15T15:54:13.957Z,74.89
2022-12-15T15:56:45.732Z,74.30
2022-12-15T15:59:21.292Z,74.03
2022-12-15T16:01:56.744Z,73.95
2022-12-15T16:04:29.005Z,74.16
2022-12-15T16:07:01.117Z,74.14
2022-12-15T16:09:33.212Z,73.98
2022-12-15T16:12:05.008Z,73.83
2022-12-15T16:14:36.768Z,73.87
2022-12-15T16:17:12.359Z,73.81
2022-12-15T16:19:44.645Z,73.90
2022-12-15T16:22:21.122Z,73.74
2022-12-15T16:24:52.785Z,73.70
2022-12-15T16:27:24.812Z,73.89
2022-12-15T16:29:56.576Z,74.09
2022-12-15T16:32:28.356Z,73.97
2022-12-15T16:35:00.460Z,73.91
2022-12-15T16:37:39.248Z,73.62
2022-12-15T16:40:21.452Z,73.50
2022-12-15T16:43:01.845Z,73.77
2022-12-15T16:45:35.181Z,73.63
2022-12-15T16:48:07.844Z,74.05
2022-12-15T16:50:42.438Z,73.55
2022-12-15T16:53:21.175Z,73.92
2022-12-15T16:55:56.019Z,73.66
2022-12-15T16:58:26.728Z,73.64
2022-12-15T17:01:01.090Z,73.53
2022-12-15T17:03:33.510Z,73.26
2022-12-15T17:06:10.080Z,72.95
2022-12-15T17:08:45.115Z,73.10
2022-12-15T17:11:20.158Z,73.07
2022-12-15T17:13:54.307Z,73.72
2022-12-15T17:16:28.727Z,74.28
2022-12-15T17:19:00.685Z,73.94
2022-12-15T17:21:34.748Z,74.64
2022-12-15T17:24:12.633Z,74.07
2022-12-15T17:26:45.973Z,73.81
2022-12-15T17:29:20.994Z,74.35
2022-12-15T17:31:53.152Z,74.84
2022-12-15T17:34:30.654Z,74.69
2022-12-15T17:37:05.253Z,74.01
2022-12-15T17:39:39.114Z,74.01
2022-12-15T17:42:19.950Z,73.96
2022-12-15T17:44:52.728Z,73.74
2022-12-15T17:47:25.801Z,74.03
2022-12-15T17:49:58.391Z,74.01
2022-12-15T17:52:34.788Z,74.60
2022-12-15T17:55:17.932Z,74.07
2022-12-15T17:57:50.373Z,73.43
2022-12-15T18:00:30.539Z,73.90
2022-12-15T18:03:03.442Z,73.88
2022-12-15T18:05:36.437Z,73.99
2022-12-15T18:08:16.235Z,73.91
2022-12-15T18:10:49.283Z,74.56
2022-12-15T18:13:30.330Z,74.09
2022-12-15T18:16:07.957Z,73.95
2022-12-15T18:18:39.944Z,73.79
2022-12-15T18:21:18.577Z,73.98
2022-12-15T18:23:52.556Z,74.18
2022-12-15T18:26:24.999Z,73.78
2022-12-15T18:28:57.989Z,73.37
2022-12-15T18:31:32.056Z,73.95
2022-12-15T18:34:05.050Z,74.29
2022-12-15T18:36:37.105Z,74.19
2022-12-15T18:39:21.453Z,74.63
2022-12-15T18:41:56.880Z,74.63
2022-12-15T18:44:32.709Z,74.32
2022-12-15T18:47:15.090Z,74.51
2022-12-15T18:49:49.129Z,74.40
2022-12-15T18:52:31.508Z,74.33
2022-12-15T18:55:15.484Z,74.42
2022-12-15T18:57:48.824Z,74.91
2022-12-15T19:00:40.687Z,74.81
2022-12-15T19:03:14.763Z,74.66
2022-12-15T19:05:49.275Z,74.10
2022-12-15T19:08:26.264Z,74.18
2022-12-15T19:11:02.353Z,74.47
2022-12-15T19:13:36.419Z,74.60
2022-12-15T19:16:16.186Z,73.53
2022-12-15T19:19:05.920Z,73.67
2022-12-15T19:21:56.929Z,73.42
2022-12-15T19:25:02.510Z,73.86
2022-12-15T19:27:39.158Z,74.34
2022-12-15T19:30:20.272Z,74.09
2022-12-15T19:32:54.177Z,73.66
2022-12-15T19:35:29.687Z,73.93
2022-12-15T19:38:05.773Z,74.05
2022-12-15T19:40:39.991Z,74.35
2022-12-15T19:43:18.954Z,73.73
2022-12-15T19:46:18.990Z,73.45
2022-12-15T19:48:53.744Z,73.90
2022-12-15T19:51:28.118Z,74.24
2022-12-15T19:54:01.996Z,74.49
2022-12-15T19:56:42.745Z,74.34
2022-12-15T19:59:25.013Z,74.24
2022-12-15T20:01:58.953Z,73.68
2022-12-15T20:04:34.963Z,73.52
2022-12-15T20:07:18.130Z,73.84
2022-12-15T20:09:50.489Z,73.92
2022-12-15T20:12:24.182Z,74.07
2022-12-15T20:14:56.695Z,73.74
2022-12-15T20:17:29.504Z,73.51
2022-12-15T20:20:02.738Z,73.94
2022-12-15T20:22:36.153Z,73.94
2022-12-15T20:25:14.959Z,73.79
2022-12-15T20:27:50.521Z,73.45
2022-12-15T20:30:26.421Z,73.37
2022-12-15T20:32:59.050Z,73.87
2022-12-15T20:35:33.462Z,73.50
2022-12-15T20:38:19.731Z,73.42
2022-12-15T20:40:57.634Z,73.30
2022-12-15T20:43:35.961Z,73.07
2022-12-15T20:46:14.073Z,73.55
2022-12-15T20:48:46.700Z,74.06
2022-12-15T20:51:28.506Z,74.11
2022-12-15T20:54:02.111Z,73.28
2022-12-15T20:56:34.199Z,73.78
2022-12-15T20:59:09.801Z,73.90
2022-12-15T21:01:43.465Z,73.93
2022-12-15T21:04:26.342Z,73.13
2022-12-15T21:06:59.247Z,73.12
2022-12-15T21:09:31.669Z,72.68
2022-12-15T21:12:08.987Z,73.25
2022-12-15T21:14:42.172Z,72.99
2022-12-15T21:17:18.364Z,72.95
2022-12-15T21:19:50.665Z,73.10
2022-12-15T21:22:26.808Z,73.12
2022-12-15T21:25:00.894Z,73.35
2022-12-15T21:27:32.736Z,73.35
2022-12-15T21:30:04.569Z,73.65
2022-12-15T21:32:36.193Z,73.79
2022-12-15T21:35:08.807Z,73.65
2022-12-15T21:37:42.229Z,73.52
2022-12-15T21:40:21.458Z,73.13
2022-12-15T21:42:54.784Z,73.18
2022-12-15T21:45:28.263Z,73.12
2022-12-15T21:48:17.291Z,73.44
2022-12-15T21:50:50.269Z,73.33
2022-12-15T21:53:23.324Z,73.13
2022-12-15T21:55:57.655Z,73.10
2022-12-15T21:58:29.430Z,73.00
2022-12-15T22:01:03.244Z,73.16
2022-12-15T22:03:37.427Z,72.86
2022-12-15T22:06:16.007Z,73.30
2022-12-15T22:08:47.705Z,73.24
2022-12-15T22:11:27.220Z,73.66
2022-12-15T22:14:00.903Z,73.92
2022-12-15T22:16:32.621Z,74.17
2022-12-15T22:19:05.334Z,74.08
2022-12-15T22:21:36.856Z,74.33
2022-12-15T22:24:09.102Z,74.48
2022-12-15T22:26:41.947Z,74.48
2022-12-15T22:29:18.681Z,74.81
2022-12-15T22:31:52.052Z,74.35
2022-12-15T22:34:25.834Z,74.17
2022-12-15T22:36:57.572Z,73.90
2022-12-15T22:39:29.174Z,73.59
2022-12-15T22:42:01.714Z,73.62
2022-12-15T22:44:37.572Z,73.61
2022-12-15T22:47:12.283Z,73.58
2022-12-15T22:49:42.595Z,73.35
2022-12-15T22:52:20.413Z,73.91
2022-12-15T22:54:54.896Z,74.49
2022-12-15T22:57:28.202Z,73.95
2022-12-15T23:00:04.482Z,74.21
2022-12-15T23:02:40.107Z,74.60
2022-12-15T23:05:14.547Z,74.81
2022-12-15T23:07:46.594Z,74.56
2022-12-15T23:10:37.476Z,74.47
2022-12-15T23:13:09.412Z,74.08
2022-12-15T23:16:00.185Z,73.81
2022-12-15T23:18:32.269Z,73.76
2022-12-15T23:21:04.127Z,73.91
2022-12-15T23:23:36.116Z,73.94
2022-12-15T23:26:08.438Z,74.09
2022-12-15T23:28:40.274Z,73.97
2022-12-15T23:31:12.422Z,74.30
2022-12-15T23:33:44.329Z,74.20
2022-12-15T23:36:16.457Z,74.15
2022-12-15T23:38:48.265Z,73.90
2022-12-15T23:41:21.192Z,73.95
2022-12-15T23:43:52.944Z,73.98
2022-12-15T23:46:24.851Z,73.70
2022-12-15T23:48:56.860Z,74.01
2022-12-15T23:51:28.576Z,74.52
2022-12-15T23:54:00.415Z,74.33
2022-12-15T23:56:31.949Z,73.70
2022-12-15T23:59:03.954Z,73.42
